createdAt,value
2019-05-10T00:00:18.440Z,80.52
2019-05-10T00:03:05.817Z,80.84
2019-05-10T00:05:53.498Z,80.84
2019-05-10T00:08:40.656Z,81.12
2019-05-10T00:11:11.736Z,81.23
2019-05-10T00:13:49.953Z,80.90
2019-05-10T00:16:19.401Z,80.90
2019-05-10T00:18:48.837Z,82.30
2019-05-10T00:21:18.287Z,82.51
2019-05-10T00:23:47.991Z,82.81
2019-05-10T00:26:17.790Z,83.20
2019-05-10T00:28:47.494Z,84.03
2019-05-10T00:31:17.173Z,84.01
2019-05-10T00:33:46.923Z,84.49
2019-05-10T00:36:16.682Z,84.78
2019-05-10T00:38:46.131Z,84.46
2019-05-10T00:41:15.840Z,84.40
2019-05-10T00:43:45.271Z,84.59
2019-05-10T00:46:15.050Z,84.82
2019-05-10T00:48:44.486Z,84.88
2019-05-10T00:51:13.931Z,84.99
2019-05-10T00:53:43.665Z,84.92
2019-05-10T00:56:13.356Z,85.13
2019-05-10T00:58:42.784Z,85.33
2019-05-10T01:01:12.547Z,85.40
2019-05-10T01:03:42.301Z,85.33
2019-05-10T01:06:12.006Z,84.77
2019-05-10T01:08:41.700Z,84.69
2019-05-10T01:11:11.370Z,84.56
2019-05-10T01:13:40.815Z,84.50
2019-05-10T01:16:10.536Z,84.51
2019-05-10T01:18:40.246Z,84.72
2019-05-10T01:21:09.936Z,84.65
2019-05-10T01:23:39.660Z,84.16
2019-05-10T01:26:09.118Z,84.08
2019-05-10T01:28:38.543Z,83.97
2019-05-10T01:31:07.990Z,84.11
2019-05-10T01:33:37.691Z,84.13
2019-05-10T01:36:07.145Z,83.62
2019-05-10T01:38:36.579Z,83.96
2019-05-10T01:41:06.294Z,84.09
2019-05-10T01:43:35.811Z,84.89
2019-05-10T01:46:05.608Z,85.16
2019-05-10T01:48:35.054Z,85.18
2019-05-10T01:51:04.824Z,85.06
2019-05-10T01:53:34.537Z,85.18
2019-05-10T01:56:03.964Z,85.33
2019-05-10T01:58:33.415Z,85.70
2019-05-10T02:01:03.298Z,85.84
2019-05-10T02:03:33.059Z,85.98
2019-05-10T02:06:02.509Z,86.12
2019-05-10T02:08:32.271Z,86.27
2019-05-10T02:11:01.705Z,86.41
2019-05-10T02:13:31.145Z,86.41
2019-05-10T02:16:00.591Z,86.36
2019-05-10T02:18:30.032Z,85.57
2019-05-10T02:20:59.794Z,85.87
2019-05-10T02:23:29.240Z,85.73
2019-05-10T02:26:08.998Z,85.67
2019-05-10T02:28:30.463Z,85.47
2019-05-10T02:31:00.174Z,85.69
2019-05-10T02:33:29.932Z,85.66
2019-05-10T02:35:59.624Z,85.99
2019-05-10T02:38:29.045Z,86.37
2019-05-10T02:40:58.801Z,85.99
2019-05-10T02:43:28.249Z,85.66
2019-05-10T02:45:58.023Z,85.28
2019-05-10T02:48:27.461Z,85.46
2019-05-10T02:50:56.917Z,85.85
2019-05-10T02:53:26.728Z,85.92
2019-05-10T02:55:57.379Z,86.19
2019-05-10T02:58:27.561Z,86.43
2019-05-10T03:00:58.790Z,86.50
2019-05-10T03:03:32.122Z,86.60
2019-05-10T03:06:04.405Z,86.84
2019-05-10T03:09:09.116Z,86.99
2019-05-10T03:11:47.298Z,86.51
2019-05-10T03:14:19.408Z,86.77
2019-05-10T03:16:51.434Z,87.01
2019-05-10T03:19:23.392Z,87.07
2019-05-10T03:22:02.923Z,86.82
2019-05-10T03:24:32.369Z,86.92
2019-05-10T03:27:01.811Z,86.90
2019-05-10T03:29:31.258Z,87.00
2019-05-10T03:32:00.990Z,87.01
2019-05-10T03:34:30.413Z,87.03
2019-05-10T03:36:59.842Z,87.25
2019-05-10T03:39:29.294Z,87.43
2019-05-10T03:41:58.989Z,87.38
2019-05-10T03:44:28.433Z,87.50
2019-05-10T03:46:58.207Z,87.44
2019-05-10T03:49:27.915Z,87.53
2019-05-10T03:51:57.346Z,87.21
2019-05-10T03:54:26.798Z,87.19
2019-05-10T03:57:12.373Z,86.99
2019-05-10T03:59:27.695Z,86.74
2019-05-10T04:01:57.134Z,86.85
2019-05-10T04:04:26.570Z,86.83
2019-05-10T04:06:56.294Z,86.79
2019-05-10T04:09:25.740Z,86.92
2019-05-10T04:11:55.493Z,87.02
2019-05-10T04:14:25.216Z,87.48
2019-05-10T04:16:54.921Z,87.42
2019-05-10T04:19:24.363Z,87.26
2019-05-10T04:21:53.801Z,87.06
2019-05-10T04:24:23.249Z,87.06
2019-05-10T04:26:52.743Z,87.00
2019-05-10T04:29:22.193Z,86.98
2019-05-10T04:31:51.946Z,86.84
2019-05-10T04:34:21.758Z,86.95
2019-05-10T04:36:51.192Z,87.41
2019-05-10T04:39:20.969Z,87.74
2019-05-10T04:41:50.412Z,87.87
2019-05-10T04:44:19.887Z,87.66
2019-05-10T04:46:49.296Z,87.54
2019-05-10T04:49:18.733Z,87.37
2019-05-10T04:51:48.179Z,87.34
2019-05-10T04:54:17.892Z,87.50
2019-05-10T04:56:47.576Z,87.77
2019-05-10T04:59:17.095Z,87.66
2019-05-10T05:01:46.791Z,87.74
2019-05-10T05:04:16.236Z,87.60
2019-05-10T05:06:45.684Z,87.55
2019-05-10T05:09:15.115Z,87.50
2019-05-10T05:11:44.565Z,87.11
2019-05-10T05:14:14.002Z,87.11
2019-05-10T05:16:43.451Z,86.99
2019-05-10T05:19:13.527Z,86.73
2019-05-10T05:21:43.361Z,87.01
2019-05-10T05:24:17.193Z,86.29
2019-05-10T05:26:44.218Z,86.52
2019-05-10T05:29:13.654Z,86.01
2019-05-10T05:31:43.099Z,85.92
2019-05-10T05:34:12.574Z,86.10
2019-05-10T05:36:42.334Z,86.06
2019-05-10T05:39:11.760Z,86.07
2019-05-10T05:41:49.146Z,85.85
2019-05-10T05:44:12.378Z,85.31
2019-05-10T05:46:41.825Z,85.03
2019-05-10T05:49:11.260Z,84.87
2019-05-10T05:51:40.713Z,84.68
2019-05-10T05:54:15.225Z,84.27
2019-05-10T05:56:44.454Z,84.27
2019-05-10T05:59:17.459Z,84.61
2019-05-10T06:01:44.144Z,83.82
2019-05-10T06:04:13.665Z,83.74
2019-05-10T06:06:43.448Z,83.42
2019-05-10T06:09:12.895Z,82.98
2019-05-10T06:11:42.345Z,83.36
2019-05-10T06:14:12.861Z,83.05
2019-05-10T06:16:44.937Z,82.82
2019-05-10T06:19:13.885Z,82.43
2019-05-10T06:21:43.332Z,82.05
2019-05-10T06:24:13.701Z,80.92
2019-05-10T06:26:43.942Z,80.63
2019-05-10T06:29:17.558Z,80.58
2019-05-10T06:31:44.551Z,80.58
2019-05-10T06:34:14.323Z,80.23
2019-05-10T06:36:43.760Z,80.06
2019-05-10T06:39:13.458Z,79.95
2019-05-10T06:41:43.163Z,79.59
2019-05-10T06:44:12.600Z,79.21
2019-05-10T06:46:42.291Z,79.33
2019-05-10T06:49:11.978Z,78.68
2019-05-10T06:51:42.968Z,77.71
2019-05-10T06:54:13.096Z,76.80
2019-05-10T06:56:43.569Z,75.51
2019-05-10T06:59:14.142Z,75.92
2019-05-10T07:01:47.896Z,76.10
2019-05-10T07:04:15.680Z,75.63
2019-05-10T07:06:45.178Z,75.65
2019-05-10T07:09:14.610Z,76.41
2019-05-10T07:11:44.067Z,74.58
2019-05-10T07:14:13.509Z,73.63
2019-05-10T07:16:43.294Z,73.57
2019-05-10T07:19:12.744Z,73.60
2019-05-10T07:21:44.855Z,72.98
2019-05-10T07:24:18.337Z,73.58
2019-05-10T07:26:45.094Z,73.26
2019-05-10T07:29:28.984Z,73.56
2019-05-10T07:31:45.765Z,73.27
2019-05-10T07:34:17.497Z,73.44
2019-05-10T07:36:46.771Z,73.45
2019-05-10T07:39:16.542Z,73.19
2019-05-10T07:41:45.993Z,72.83
2019-05-10T07:44:15.429Z,73.21
2019-05-10T07:46:46.462Z,72.99
2019-05-10T07:49:16.355Z,72.44
2019-05-10T07:51:46.275Z,72.77
2019-05-10T07:54:15.798Z,73.06
2019-05-10T07:56:47.676Z,73.39
2019-05-10T07:59:22.122Z,73.09
2019-05-10T08:01:49.193Z,72.33
2019-05-10T08:04:27.959Z,72.72
2019-05-10T08:06:52.092Z,72.06
2019-05-10T08:09:22.052Z,72.15
2019-05-10T08:11:54.211Z,72.36
2019-05-10T08:14:25.306Z,72.47
2019-05-10T08:16:58.573Z,71.30
2019-05-10T08:19:25.603Z,71.51
2019-05-10T08:22:00.649Z,71.27
2019-05-10T08:24:26.213Z,68.93
2019-05-10T08:27:06.644Z,68.92
2019-05-10T08:29:27.097Z,68.34
2019-05-10T08:31:56.881Z,67.07
2019-05-10T08:34:28.842Z,67.34
2019-05-10T08:36:58.037Z,67.49
2019-05-10T08:39:27.493Z,68.30
2019-05-10T08:42:04.809Z,67.78
2019-05-10T08:44:28.716Z,65.75
2019-05-10T08:46:58.218Z,66.53
2019-05-10T08:49:35.719Z,65.77
2019-05-10T08:51:59.168Z,65.72
2019-05-10T08:54:28.614Z,65.86
2019-05-10T08:59:45.181Z,66.30
2019-05-10T09:02:14.896Z,65.88
2019-05-10T09:04:49.625Z,66.03
2019-05-10T09:07:16.056Z,66.20
2019-05-10T09:09:49.918Z,63.79
2019-05-10T09:12:17.234Z,64.79
2019-05-10T09:14:48.681Z,64.92
2019-05-10T09:17:23.651Z,63.96
2019-05-10T09:19:52.623Z,63.22
2019-05-10T09:22:24.011Z,61.41
2019-05-10T09:24:53.287Z,62.00
2019-05-10T09:27:22.725Z,61.50
2019-05-10T09:29:53.006Z,61.34
2019-05-10T09:32:28.616Z,58.12
2019-05-10T09:34:54.417Z,58.54
2019-05-10T09:37:23.921Z,58.55
2019-05-10T09:40:04.237Z,59.81
2019-05-10T09:42:26.570Z,58.33
2019-05-10T09:44:55.707Z,58.78
2019-05-10T09:47:25.429Z,60.70
2019-05-10T09:49:58.833Z,61.32
2019-05-10T09:52:26.537Z,59.88
2019-05-10T09:54:57.009Z,60.29
2019-05-10T09:57:27.819Z,59.29
2019-05-10T09:59:57.660Z,60.19
2019-05-10T10:02:33.731Z,61.34
2019-05-10T10:04:58.998Z,61.64
2019-05-10T10:07:33.169Z,60.28
2019-05-10T10:09:59.876Z,60.38
2019-05-10T10:12:29.312Z,59.96
2019-05-10T10:14:59.602Z,57.99
2019-05-10T10:17:30.760Z,57.47
2019-05-10T10:20:00.675Z,57.18
2019-05-10T10:22:30.479Z,58.10
2019-05-10T10:25:00.630Z,58.57
2019-05-10T10:27:34.443Z,59.29
2019-05-10T10:30:01.421Z,59.12
2019-05-10T10:32:34.828Z,59.59
2019-05-10T10:35:02.317Z,58.31
2019-05-10T10:37:31.763Z,59.17
2019-05-10T10:40:05.560Z,58.52
2019-05-10T10:42:32.381Z,59.82
2019-05-10T10:45:01.836Z,58.58
2019-05-10T10:47:32.340Z,56.53
2019-05-10T10:50:02.967Z,56.07
2019-05-10T10:52:33.063Z,55.34
2019-05-10T10:55:05.648Z,54.76
2019-05-10T10:57:34.195Z,53.35
2019-05-10T11:00:07.650Z,53.39
2019-05-10T11:02:37.286Z,53.75
2019-05-10T11:05:08.338Z,54.08
2019-05-10T11:07:41.507Z,53.36
2019-05-10T11:10:16.175Z,53.08
2019-05-10T11:12:41.245Z,53.31
2019-05-10T11:15:11.593Z,53.56
2019-05-10T11:17:41.190Z,53.15
2019-05-10T11:20:11.631Z,50.50
2019-05-10T11:22:49.000Z,47.70
2019-05-10T11:25:13.164Z,44.14
2019-05-10T11:27:42.593Z,41.23
2019-05-10T11:30:12.768Z,36.85
2019-05-10T11:32:42.498Z,31.31
2019-05-10T11:35:22.708Z,30.21
2019-05-10T11:37:45.662Z,32.97
2019-05-10T11:40:17.525Z,37.28
2019-05-10T11:42:47.645Z,38.71
2019-05-10T11:45:20.766Z,39.47
2019-05-10T11:47:54.324Z,43.04
2019-05-10T11:50:31.298Z,43.22
2019-05-10T11:52:51.983Z,44.36
2019-05-10T11:55:21.913Z,44.94
2019-05-10T11:58:01.911Z,45.28
2019-05-10T12:00:31.440Z,43.27
2019-05-10T12:03:07.508Z,44.55
2019-05-10T12:05:26.960Z,45.78
2019-05-10T12:07:56.472Z,44.88
2019-05-10T12:10:26.068Z,45.67
2019-05-10T12:13:10.920Z,46.41
2019-05-10T12:15:27.382Z,47.44
2019-05-10T12:23:03.359Z,46.50
2019-05-10T12:25:47.286Z,48.16
2019-05-10T12:26:08.471Z,46.72
2019-05-10T12:26:57.077Z,47.88
2019-05-10T12:28:02.325Z,47.52
2019-05-10T12:30:34.848Z,47.38
2019-05-10T12:33:08.705Z,48.42
2019-05-10T12:35:39.941Z,48.58
2019-05-10T12:38:05.991Z,49.27
2019-05-10T12:40:35.427Z,48.31
2019-05-10T12:43:04.875Z,48.13
2019-05-10T12:45:34.577Z,48.71
2019-05-10T12:48:04.266Z,48.07
2019-05-10T12:50:33.950Z,48.36
2019-05-10T12:53:13.236Z,47.53
2019-05-10T12:55:34.575Z,47.38
2019-05-10T12:58:04.029Z,46.30
2019-05-10T13:00:33.464Z,43.79
2019-05-10T13:03:12.199Z,44.63
2019-05-10T13:05:51.111Z,44.93
2019-05-10T13:08:06.058Z,44.42
2019-05-10T13:10:37.244Z,45.34
2019-05-10T13:13:06.978Z,45.55
2019-05-10T13:15:36.717Z,45.97
2019-05-10T13:18:06.529Z,46.28
2019-05-10T13:20:36.811Z,45.55
2019-05-10T13:23:09.839Z,46.12
2019-05-10T13:25:38.546Z,46.79
2019-05-10T13:28:11.365Z,47.35
2019-05-10T13:30:39.407Z,47.62
2019-05-10T13:33:08.933Z,47.77
2019-05-10T13:35:38.427Z,47.84
2019-05-10T13:38:08.191Z,47.42
2019-05-10T13:40:44.999Z,47.69
2019-05-10T13:43:08.804Z,47.88
2019-05-10T13:45:39.606Z,47.70
2019-05-10T13:48:09.292Z,47.87
2019-05-10T13:50:38.836Z,49.13
2019-05-10T13:53:19.750Z,50.81
2019-05-10T13:55:39.419Z,52.10
2019-05-10T13:58:09.144Z,52.99
2019-05-10T14:00:38.646Z,53.99
2019-05-10T14:03:11.344Z,54.77
2019-05-10T14:05:40.365Z,56.07
2019-05-10T14:08:10.341Z,57.78
2019-05-10T14:10:40.018Z,59.04
2019-05-10T14:13:09.758Z,60.17
2019-05-10T14:15:39.202Z,60.47
2019-05-10T14:18:08.965Z,60.97
2019-05-10T14:20:38.683Z,61.51
2019-05-10T14:23:08.384Z,61.61
2019-05-10T14:25:38.988Z,61.08
2019-05-10T14:28:15.465Z,61.44
2019-05-10T14:30:40.094Z,61.23
2019-05-10T14:33:14.862Z,61.96
2019-05-10T14:35:40.772Z,62.48
2019-05-10T14:38:10.630Z,61.87
2019-05-10T14:40:40.544Z,61.36
2019-05-10T14:43:10.272Z,61.32
2019-05-10T14:45:40.067Z,60.61
2019-05-10T14:48:09.780Z,59.89
2019-05-10T14:50:39.224Z,59.60
2019-05-10T14:53:08.730Z,60.10
2019-05-10T14:55:38.502Z,60.85
2019-05-10T14:58:08.217Z,60.64
2019-05-10T15:00:37.656Z,60.26
2019-05-10T15:03:07.093Z,59.61
2019-05-10T15:05:37.202Z,58.56
2019-05-10T15:08:06.641Z,58.31
2019-05-10T15:10:39.569Z,58.64
2019-05-10T15:13:07.891Z,56.75
2019-05-10T15:15:38.658Z,56.82
2019-05-10T15:18:08.156Z,56.22
2019-05-10T15:20:37.853Z,55.99
2019-05-10T15:23:07.532Z,55.17
2019-05-10T15:25:36.974Z,55.31
2019-05-10T15:28:06.772Z,53.83
2019-05-10T15:30:39.333Z,54.05
2019-05-10T15:33:07.710Z,54.38
2019-05-10T15:35:37.163Z,54.38
2019-05-10T15:38:06.591Z,54.61
2019-05-10T15:40:38.604Z,54.87
2019-05-10T15:43:10.416Z,53.93
2019-05-10T15:45:38.375Z,54.41
2019-05-10T15:48:08.127Z,54.05
2019-05-10T15:50:40.706Z,53.09
2019-05-10T15:53:09.097Z,53.70
2019-05-10T15:55:38.823Z,54.01
2019-05-10T15:58:08.517Z,53.86
2019-05-10T16:00:41.191Z,52.25
2019-05-10T16:03:09.746Z,52.12
2019-05-10T16:05:43.466Z,51.92
2019-05-10T16:08:13.500Z,52.31
2019-05-10T16:10:41.788Z,52.18
2019-05-10T16:13:14.553Z,52.83
2019-05-10T16:15:43.006Z,52.54
2019-05-10T16:18:12.437Z,52.33
2019-05-10T16:20:42.239Z,52.65
2019-05-10T16:23:11.934Z,52.68
2019-05-10T16:25:47.565Z,52.09
2019-05-10T16:28:15.598Z,51.73
2019-05-10T16:30:46.910Z,51.89
2019-05-10T16:33:16.125Z,52.08
2019-05-10T16:35:49.733Z,52.63
2019-05-10T16:38:18.170Z,53.05
2019-05-10T16:40:56.761Z,53.22
2019-05-10T16:43:24.331Z,53.62
2019-05-10T16:45:50.897Z,54.11
2019-05-10T16:48:20.341Z,53.34
2019-05-10T16:50:50.095Z,53.65
2019-05-10T16:53:19.810Z,53.65
2019-05-10T16:55:49.512Z,53.89
2019-05-10T16:58:22.277Z,53.25
2019-05-10T17:00:50.676Z,52.45
2019-05-10T17:03:20.638Z,51.58
2019-05-10T17:05:58.339Z,51.65
2019-05-10T17:08:21.850Z,52.13
2019-05-10T17:10:51.565Z,53.13
2019-05-10T17:13:21.265Z,53.51
2019-05-10T17:15:50.700Z,54.33
2019-05-10T17:18:23.859Z,53.48
2019-05-10T17:20:52.492Z,53.55
2019-05-10T17:23:22.032Z,53.94
2019-05-10T17:25:51.763Z,54.71
2019-05-10T17:28:21.211Z,55.15
2019-05-10T17:30:50.968Z,54.88
2019-05-10T17:33:20.420Z,54.93
2019-05-10T17:35:49.854Z,55.23
2019-05-10T17:38:19.540Z,55.36
2019-05-10T17:40:49.975Z,56.00
2019-05-10T17:43:22.687Z,55.93
2019-05-10T17:45:51.171Z,56.21
2019-05-10T17:48:20.892Z,56.25
2019-05-10T17:50:50.312Z,56.43
2019-05-10T17:53:19.755Z,56.77
2019-05-10T17:55:55.387Z,57.32
2019-05-10T17:58:20.637Z,57.79
2019-05-10T18:00:50.346Z,58.05
2019-05-10T18:03:20.062Z,58.23
2019-05-10T18:05:53.168Z,58.47
2019-05-10T18:08:21.020Z,58.75
2019-05-10T18:10:50.523Z,58.90
2019-05-10T18:13:19.966Z,58.93
2019-05-10T18:15:49.408Z,58.95
2019-05-10T18:18:19.147Z,58.88
2019-05-10T18:20:48.589Z,59.05
2019-05-10T18:23:21.060Z,59.22
2019-05-10T18:25:52.555Z,59.29
2019-05-10T18:28:21.553Z,59.72
2019-05-10T18:30:51.525Z,59.74
2019-05-10T18:33:20.989Z,59.56
2019-05-10T18:35:52.685Z,59.83
2019-05-10T18:38:21.935Z,59.83
2019-05-10T18:40:51.386Z,59.89
2019-05-10T18:43:20.841Z,60.84
2019-05-10T18:45:50.538Z,61.20
2019-05-10T18:48:20.029Z,61.45
2019-05-10T18:50:49.754Z,62.29
2019-05-10T18:53:19.204Z,62.33
2019-05-10T18:55:48.891Z,62.34
2019-05-10T18:58:23.429Z,63.19
2019-05-10T19:00:50.643Z,63.29
2019-05-10T19:03:20.083Z,63.87
2019-05-10T19:05:49.848Z,64.46
2019-05-10T19:08:19.287Z,64.33
2019-05-10T19:10:48.738Z,64.79
2019-05-10T19:13:18.761Z,65.15
2019-05-10T19:15:52.829Z,65.23
2019-05-10T19:18:23.544Z,65.71
2019-05-10T19:20:53.457Z,66.62
2019-05-10T19:23:22.565Z,67.22
2019-05-10T19:25:53.931Z,67.37
2019-05-10T19:28:26.951Z,67.34
2019-05-10T19:30:58.804Z,67.58
2019-05-10T19:33:29.619Z,67.63
2019-05-10T19:35:57.671Z,68.22
2019-05-10T19:38:27.435Z,68.17
2019-05-10T19:40:57.345Z,67.90
2019-05-10T19:43:26.780Z,67.52
2019-05-10T19:45:59.567Z,67.71
2019-05-10T19:48:29.267Z,68.00
2019-05-10T19:51:02.818Z,68.39
2019-05-10T19:53:30.314Z,68.41
2019-05-10T19:56:00.101Z,67.97
2019-05-10T19:58:32.162Z,68.18
2019-05-10T20:01:00.956Z,68.54
2019-05-10T20:03:30.387Z,68.75
2019-05-10T20:05:59.836Z,68.36
2019-05-10T20:08:29.592Z,68.00
2019-05-10T20:10:59.285Z,68.31
2019-05-10T20:13:28.798Z,68.26
2019-05-10T20:16:01.269Z,68.93
2019-05-10T20:18:29.738Z,68.84
2019-05-10T20:20:59.554Z,69.34
2019-05-10T20:23:28.988Z,69.76
2019-05-10T20:25:59.440Z,69.98
2019-05-10T20:28:29.396Z,69.93
2019-05-10T20:30:58.849Z,69.59
2019-05-10T20:33:28.286Z,69.96
2019-05-10T20:35:58.036Z,70.05
2019-05-10T20:38:27.731Z,70.25
2019-05-10T20:40:57.528Z,70.41
2019-05-10T20:43:27.037Z,70.70
2019-05-10T20:45:56.473Z,70.85
2019-05-10T20:48:25.919Z,70.72
2019-05-10T20:50:56.573Z,71.20
2019-05-10T20:53:26.071Z,71.44
2019-05-10T20:55:55.802Z,71.74
2019-05-10T20:58:25.544Z,71.27
2019-05-10T21:00:55.306Z,71.46
2019-05-10T21:03:24.742Z,71.16
2019-05-10T21:05:54.523Z,70.85
2019-05-10T21:08:24.228Z,70.60
2019-05-10T21:10:53.943Z,71.14
2019-05-10T21:13:23.380Z,71.53
2019-05-10T21:15:53.151Z,72.05
2019-05-10T21:18:22.861Z,72.04
2019-05-10T21:20:52.543Z,72.17
2019-05-10T21:23:21.982Z,71.93
2019-05-10T21:25:51.431Z,71.89
2019-05-10T21:28:21.134Z,71.95
2019-05-10T21:30:53.419Z,71.99
2019-05-10T21:33:21.760Z,72.17
2019-05-10T21:35:51.203Z,72.52
2019-05-10T21:38:32.441Z,73.21
2019-05-10T21:40:52.440Z,73.14
2019-05-10T21:43:21.860Z,72.93
2019-05-10T21:45:51.360Z,73.07
2019-05-10T21:48:20.790Z,72.92
2019-05-10T21:50:50.548Z,72.75
2019-05-10T21:53:20.327Z,72.93
2019-05-10T21:55:49.828Z,73.17
2019-05-10T21:58:19.304Z,73.16
2019-05-10T22:00:52.403Z,73.29
2019-05-10T22:03:22.005Z,73.27
2019-05-10T22:05:51.486Z,72.85
2019-05-10T22:08:20.964Z,72.61
2019-05-10T22:10:50.455Z,72.40
2019-05-10T22:13:19.930Z,72.94
2019-05-10T22:15:49.793Z,74.00
2019-05-10T22:18:19.606Z,74.07
2019-05-10T22:20:49.098Z,74.54
2019-05-10T22:23:18.587Z,74.14
2019-05-10T22:25:48.124Z,73.51
2019-05-10T22:28:17.609Z,74.29
2019-05-10T22:30:47.081Z,74.82
2019-05-10T22:33:16.572Z,75.37
2019-05-10T22:35:46.040Z,76.50
2019-05-10T22:38:15.864Z,76.62
2019-05-10T22:40:45.319Z,77.55
2019-05-10T22:43:14.809Z,78.11
2019-05-10T22:45:44.556Z,78.05
2019-05-10T22:48:14.295Z,78.21
2019-05-10T22:50:43.772Z,78.46
2019-05-10T22:53:13.258Z,78.68
2019-05-10T22:55:42.738Z,78.57
2019-05-10T22:58:12.465Z,79.30
2019-05-10T23:00:41.941Z,79.77
2019-05-10T23:03:11.441Z,80.35
2019-05-10T23:05:40.905Z,80.85
2019-05-10T23:08:10.644Z,80.99
2019-05-10T23:10:40.116Z,81.05
2019-05-10T23:13:09.640Z,81.12
2019-05-10T23:15:39.531Z,81.81
2019-05-10T23:18:09.348Z,82.74
2019-05-10T23:20:38.821Z,83.26
2019-05-10T23:23:08.560Z,82.94
2019-05-10T23:25:57.377Z,82.63
2019-05-10T23:28:26.854Z,82.37
2019-05-10T23:30:56.328Z,82.75
2019-05-10T23:33:26.146Z,82.75
2019-05-10T23:35:55.941Z,83.35
2019-05-10T23:38:25.424Z,83.86
2019-05-10T23:40:55.167Z,83.97
2019-05-10T23:43:25.072Z,84.20
2019-05-10T23:45:54.557Z,84.43
2019-05-10T23:48:24.058Z,84.47
2019-05-10T23:50:53.537Z,84.44
2019-05-10T23:53:23.293Z,83.92
2019-05-10T23:55:53.106Z,83.30
2019-05-10T23:58:22.931Z,82.55
